createdAt,value
2023-04-06T00:36:51.395Z,11.25
2023-04-06T00:39:25.861Z,12.80
2023-04-06T00:44:21.857Z,12.50
2023-04-06T00:46:48.787Z,11.50
2023-04-06T00:49:15.791Z,12.35
2023-04-06T00:51:42.845Z,12.10
2023-04-06T00:54:10.400Z,12.57
2023-04-06T00:56:37.501Z,11.95
2023-04-06T00:59:04.519Z,10.30
2023-04-06T01:01:33.654Z,11.55
2023-04-06T01:04:07.501Z,11.68
2023-04-06T01:06:42.049Z,10.93
2023-04-06T01:09:09.589Z,10.38
2023-04-06T01:11:37.174Z,10.65
2023-04-06T01:14:07.262Z,10.68
2023-04-06T01:17:06.755Z,9.38
2023-04-06T01:19:34.844Z,9.52
2023-04-06T01:22:02.168Z,10.68
2023-04-06T01:24:32.079Z,10.93
2023-04-06T01:27:12.531Z,9.50
2023-04-06T01:29:52.431Z,9.82
2023-04-06T01:32:34.085Z,10.23
2023-04-06T01:35:01.563Z,10.02
2023-04-06T01:37:33.311Z,10.80
2023-04-06T01:40:04.608Z,10.00
2023-04-06T01:42:43.419Z,10.93
2023-04-06T01:45:13.602Z,10.02
2023-04-06T01:47:41.517Z,11.15
2023-04-06T01:50:09.429Z,11.63
2023-04-06T01:52:42.275Z,10.07
2023-04-06T01:55:11.605Z,10.98
2023-04-06T01:57:58.138Z,10.82
2023-04-06T02:00:35.163Z,10.90
2023-04-06T02:03:02.513Z,10.68
2023-04-06T02:05:34.432Z,11.05
2023-04-06T02:08:02.114Z,11.32
2023-04-06T02:10:34.685Z,10.05
2023-04-06T02:13:08.661Z,10.52
2023-04-06T02:15:36.573Z,10.60
2023-04-06T02:18:03.673Z,10.70
2023-04-06T02:20:30.864Z,10.30
2023-04-06T02:23:01.409Z,10.82
2023-04-06T02:25:29.236Z,10.68
2023-04-06T02:27:56.501Z,11.40
2023-04-06T02:30:23.562Z,9.48
2023-04-06T02:32:50.772Z,10.70
2023-04-06T02:35:17.917Z,10.10
2023-04-06T02:37:48.553Z,10.90
2023-04-06T02:40:15.599Z,11.52
2023-04-06T02:42:42.597Z,9.95
2023-04-06T02:45:09.945Z,10.48
2023-04-06T02:47:43.069Z,10.25
2023-04-06T02:50:12.187Z,11.10
2023-04-06T02:52:46.759Z,10.55
2023-04-06T02:55:14.052Z,10.27
2023-04-06T02:57:41.464Z,10.43
2023-04-06T03:00:09.237Z,9.82
2023-04-06T03:02:41.261Z,10.90
2023-04-06T03:05:12.332Z,10.50
2023-04-06T03:07:42.883Z,11.07
2023-04-06T03:10:16.037Z,10.95
2023-04-06T03:12:45.481Z,10.18
2023-04-06T03:15:35.490Z,10.77
2023-04-06T03:18:12.467Z,10.65
2023-04-06T03:20:43.572Z,11.13
2023-04-06T03:23:11.436Z,11.23
2023-04-06T03:25:41.948Z,12.02
2023-04-06T03:28:12.349Z,12.00
2023-04-06T03:30:50.462Z,13.55
2023-04-06T03:33:23.506Z,12.07
2023-04-06T03:35:55.355Z,13.15
2023-04-06T03:38:25.371Z,11.60
2023-04-06T03:40:53.438Z,11.60
2023-04-06T03:43:24.578Z,11.68
2023-04-06T03:45:51.777Z,12.38
2023-04-06T03:48:18.737Z,11.75
2023-04-06T03:50:46.092Z,12.20
2023-04-06T03:53:13.266Z,13.13
2023-04-06T03:55:40.942Z,14.07
2023-04-06T03:58:07.980Z,13.77
2023-04-06T04:00:35.098Z,15.13
2023-04-06T04:03:03.349Z,15.48
2023-04-06T04:05:30.752Z,15.82
2023-04-06T04:07:57.978Z,15.70
2023-04-06T04:10:27.352Z,14.40
2023-04-06T04:12:54.406Z,13.30
2023-04-06T04:15:21.475Z,13.20
2023-04-06T04:17:50.481Z,13.30
2023-04-06T04:20:17.756Z,12.93
2023-04-06T04:22:44.765Z,13.80
2023-04-06T04:25:12.077Z,12.95
2023-04-06T04:27:44.697Z,13.32
2023-04-06T04:30:12.358Z,13.25
2023-04-06T04:32:39.577Z,13.20
2023-04-06T04:35:09.799Z,13.65
2023-04-06T04:37:42.043Z,13.63
2023-04-06T04:40:10.644Z,12.77
2023-04-06T04:42:52.550Z,14.00
2023-04-06T04:45:26.329Z,13.25
2023-04-06T04:47:54.038Z,14.10
2023-04-06T04:50:23.901Z,13.07
2023-04-06T04:52:55.386Z,14.20
2023-04-06T04:55:25.294Z,14.02
2023-04-06T04:57:55.465Z,13.77
2023-04-06T05:00:30.534Z,14.75
2023-04-06T05:02:59.352Z,13.65
2023-04-06T05:05:29.408Z,13.20
2023-04-06T05:07:56.524Z,13.05
2023-04-06T05:10:37.995Z,14.82
2023-04-06T05:13:05.561Z,14.63
2023-04-06T05:15:32.988Z,14.30
2023-04-06T05:18:07.365Z,14.35
2023-04-06T05:20:37.050Z,14.88
2023-04-06T05:23:04.044Z,15.02
2023-04-06T05:25:31.678Z,15.18
2023-04-06T05:30:36.858Z,15.60
2023-04-06T05:33:04.626Z,14.95
2023-04-06T05:35:45.046Z,14.80
2023-04-06T05:38:13.775Z,14.80
2023-04-06T05:40:42.261Z,14.75
2023-04-06T05:43:13.716Z,13.70
2023-04-06T05:45:46.664Z,14.27
2023-04-06T05:48:13.834Z,14.55
2023-04-06T05:50:41.088Z,13.73
2023-04-06T05:53:09.335Z,15.85
2023-04-06T05:55:41.397Z,14.70
2023-04-06T05:58:13.474Z,16.13
2023-04-06T06:00:40.618Z,14.32
2023-04-06T06:03:09.726Z,18.15
2023-04-06T06:05:38.878Z,17.75
2023-04-06T06:08:13.869Z,14.20
2023-04-06T06:10:41.546Z,13.77
2023-04-06T06:13:13.934Z,14.55
2023-04-06T06:15:40.990Z,17.08
2023-04-06T06:18:08.559Z,18.25
2023-04-06T06:20:35.882Z,16.80
2023-04-06T06:23:05.533Z,14.23
2023-04-06T06:25:33.907Z,15.63
2023-04-06T06:28:01.360Z,16.17
2023-04-06T06:30:31.173Z,16.55
2023-04-06T06:32:58.546Z,16.17
2023-04-06T06:35:26.267Z,15.88
2023-04-06T06:37:53.199Z,15.63
2023-04-06T06:40:25.395Z,15.25
2023-04-06T06:42:54.166Z,15.57
2023-04-06T06:45:47.072Z,14.98
2023-04-06T06:48:14.857Z,14.20
2023-04-06T06:50:41.995Z,15.27
2023-04-06T06:53:09.069Z,15.20
2023-04-06T06:55:35.993Z,16.65
2023-04-06T06:58:03.356Z,14.50
2023-04-06T07:00:30.713Z,16.52
2023-04-06T07:02:58.202Z,14.45
2023-04-06T07:05:28.845Z,15.02
2023-04-06T07:07:58.342Z,16.25
2023-04-06T07:10:27.440Z,16.67
2023-04-06T07:12:54.591Z,16.42
2023-04-06T07:15:21.711Z,15.95
2023-04-06T07:17:49.789Z,17.55
2023-04-06T07:20:17.258Z,17.55
2023-04-06T07:22:46.029Z,17.70
2023-04-06T07:25:13.146Z,18.98
2023-04-06T07:40:08.142Z,17.83
2023-04-06T07:42:35.865Z,19.85
2023-04-06T07:45:06.000Z,17.98
2023-04-06T07:47:33.616Z,19.35
2023-04-06T07:50:02.497Z,19.38
2023-04-06T07:52:30.402Z,20.13
2023-04-06T07:54:57.820Z,20.48
2023-04-06T07:57:25.072Z,18.63
2023-04-06T07:59:52.283Z,18.80
2023-04-06T08:02:19.340Z,19.48
2023-04-06T08:04:48.000Z,18.92
2023-04-06T08:07:14.986Z,19.05
2023-04-06T08:09:42.170Z,19.63
2023-04-06T08:12:09.217Z,19.65
2023-04-06T08:14:36.409Z,19.67
2023-04-06T08:17:05.252Z,20.00
2023-04-06T08:19:33.537Z,18.70
2023-04-06T08:22:00.579Z,19.98
2023-04-06T08:24:27.518Z,18.50
2023-04-06T08:26:54.626Z,18.13
2023-04-06T08:29:21.672Z,19.17
2023-04-06T08:31:48.558Z,20.30
2023-04-06T08:34:16.391Z,18.85
2023-04-06T08:36:43.430Z,18.13
2023-04-06T08:39:10.432Z,18.30
2023-04-06T08:41:37.436Z,17.63
2023-04-06T08:44:05.946Z,18.80
2023-04-06T08:46:33.066Z,21.25
2023-04-06T08:49:02.228Z,18.02
2023-04-06T08:51:31.387Z,18.75
2023-04-06T08:53:59.894Z,17.67
2023-04-06T08:56:29.181Z,18.77
2023-04-06T08:58:57.374Z,18.42
2023-04-06T09:01:28.642Z,18.50
2023-04-06T09:04:01.675Z,17.73
2023-04-06T09:06:28.947Z,17.98
2023-04-06T09:08:56.271Z,17.80
2023-04-06T09:11:23.792Z,18.15
2023-04-06T09:13:58.408Z,18.40
2023-04-06T09:16:27.107Z,17.70
2023-04-06T09:18:54.174Z,17.38
2023-04-06T09:21:23.806Z,17.85
2023-04-06T09:24:03.039Z,17.48
2023-04-06T09:26:30.483Z,16.92
2023-04-06T09:29:02.605Z,18.27
2023-04-06T09:31:36.341Z,16.95
2023-04-06T09:34:03.511Z,17.00
2023-04-06T09:36:32.328Z,16.55
2023-04-06T09:39:01.212Z,17.33
2023-04-06T09:41:31.484Z,16.73
2023-04-06T09:44:11.626Z,18.13
2023-04-06T09:46:57.655Z,17.98
2023-04-06T09:49:31.507Z,16.30
2023-04-06T09:52:04.383Z,17.98
2023-04-06T09:54:33.171Z,17.20
2023-04-06T09:57:00.152Z,18.08
2023-04-06T09:59:54.163Z,19.08
2023-04-06T10:02:36.258Z,18.27
2023-04-06T10:05:06.713Z,16.88
2023-04-06T10:07:35.932Z,17.08
2023-04-06T10:10:06.554Z,17.55
2023-04-06T10:12:33.427Z,17.13
2023-04-06T10:15:00.741Z,18.35
2023-04-06T10:17:27.847Z,16.45
2023-04-06T10:20:02.272Z,17.52
2023-04-06T10:25:10.146Z,17.85
2023-04-06T10:27:37.097Z,17.20
2023-04-06T10:30:06.544Z,17.77
2023-04-06T10:32:42.874Z,19.27
2023-04-06T10:35:11.456Z,17.88
2023-04-06T10:38:04.592Z,18.30
2023-04-06T10:40:32.781Z,20.48
2023-04-06T10:43:22.616Z,17.17
2023-04-06T10:46:00.987Z,18.17
2023-04-06T10:48:41.274Z,18.50
2023-04-06T10:51:13.729Z,19.40
2023-04-06T10:53:45.140Z,17.48
2023-04-06T10:56:14.101Z,17.90
2023-04-06T10:58:48.658Z,17.85
2023-04-06T11:01:19.738Z,16.23
2023-04-06T11:03:53.418Z,17.40
2023-04-06T11:06:24.019Z,18.05
2023-04-06T11:08:52.146Z,17.10
2023-04-06T11:11:21.269Z,17.77
2023-04-06T11:14:00.827Z,17.13
2023-04-06T11:16:33.077Z,16.85
2023-04-06T11:19:01.973Z,17.67
2023-04-06T11:21:43.264Z,16.63
2023-04-06T11:24:20.266Z,16.90
2023-04-06T11:26:50.045Z,16.15
2023-04-06T11:29:18.917Z,17.88
2023-04-06T11:31:51.251Z,18.05
2023-04-06T11:34:20.958Z,17.55
2023-04-06T11:36:50.607Z,17.35
2023-04-06T11:39:24.933Z,18.40
2023-04-06T11:44:41.095Z,18.30
2023-04-06T11:47:09.628Z,18.33
2023-04-06T11:49:46.232Z,17.35
2023-04-06T11:52:21.618Z,17.33
2023-04-06T11:57:42.517Z,17.35
2023-04-06T12:00:10.948Z,18.10
2023-04-06T12:02:38.857Z,16.30
2023-04-06T12:05:07.056Z,17.48
2023-04-06T12:07:34.266Z,16.63
2023-04-06T12:10:03.655Z,16.00
2023-04-06T12:12:31.274Z,15.90
2023-04-06T12:15:02.013Z,17.23
2023-04-06T12:17:28.970Z,17.05
2023-04-06T12:20:01.852Z,17.60
2023-04-06T12:22:32.215Z,69.55
2023-04-06T12:24:59.316Z,17.92
2023-04-06T12:27:26.314Z,30.98
2023-04-06T12:29:53.274Z,18.08
2023-04-06T12:32:20.761Z,18.23
2023-04-06T12:34:48.269Z,17.67
2023-04-06T12:37:16.119Z,17.15
2023-04-06T12:39:45.489Z,17.83
2023-04-06T12:42:13.746Z,17.48
2023-04-06T12:44:40.926Z,17.30
2023-04-06T12:47:08.686Z,18.13
2023-04-06T12:49:36.595Z,17.98
2023-04-06T12:52:04.329Z,16.75
2023-04-06T12:54:31.280Z,17.10
2023-04-06T12:56:58.949Z,17.45
2023-04-06T12:59:26.335Z,17.08
2023-04-06T13:01:53.982Z,17.60
2023-04-06T13:04:21.034Z,17.65
2023-04-06T13:06:48.072Z,17.45
2023-04-06T13:09:15.123Z,18.45
2023-04-06T13:11:42.587Z,17.90
2023-04-06T13:14:09.892Z,16.80
2023-04-06T13:16:37.480Z,16.52
2023-04-06T13:19:04.730Z,17.05
2023-04-06T13:21:31.694Z,17.70
2023-04-06T13:23:58.719Z,17.80
2023-04-06T13:26:26.400Z,18.17
2023-04-06T13:28:53.310Z,17.27
2023-04-06T13:31:22.855Z,17.63
2023-04-06T13:33:49.926Z,18.42
2023-04-06T13:36:18.329Z,17.75
2023-04-06T13:38:46.398Z,17.42
2023-04-06T13:41:24.482Z,20.20
2023-04-06T13:43:51.811Z,17.60
2023-04-06T13:46:19.470Z,17.77
2023-04-06T13:48:48.110Z,17.98
2023-04-06T13:51:16.424Z,16.27
2023-04-06T13:53:43.459Z,15.55
2023-04-06T13:56:10.488Z,16.30
2023-04-06T13:58:37.837Z,16.02
2023-04-06T14:01:11.294Z,16.10
2023-04-06T14:03:40.554Z,14.15
2023-04-06T14:06:20.698Z,15.07
2023-04-06T14:08:58.294Z,14.32
2023-04-06T14:11:25.393Z,13.30
2023-04-06T14:13:52.418Z,13.70
2023-04-06T14:16:20.962Z,13.35
2023-04-06T14:18:47.956Z,12.25
2023-04-06T14:21:15.876Z,13.52
2023-04-06T14:23:43.199Z,13.07
2023-04-06T14:26:10.382Z,14.05
2023-04-06T14:28:37.587Z,12.13
2023-04-06T14:31:16.280Z,11.18
2023-04-06T14:33:43.767Z,9.77
2023-04-06T14:36:11.985Z,10.57
2023-04-06T14:38:39.591Z,11.07
2023-04-06T14:41:06.509Z,11.13
2023-04-06T14:43:33.441Z,10.05
2023-04-06T14:46:03.729Z,11.95
2023-04-06T14:48:30.806Z,12.13
2023-04-06T14:50:58.390Z,11.98
2023-04-06T14:53:26.057Z,11.25
2023-04-06T14:55:53.605Z,12.85
2023-04-06T14:58:21.593Z,10.85
2023-04-06T15:00:48.886Z,10.48
2023-04-06T15:03:16.813Z,12.10
2023-04-06T15:05:44.212Z,10.70
2023-04-06T15:08:12.749Z,11.55
2023-04-06T15:10:39.799Z,12.57
2023-04-06T15:13:06.848Z,11.00
2023-04-06T15:15:34.265Z,11.45
2023-04-06T15:18:03.607Z,10.80
2023-04-06T15:20:31.740Z,10.25
2023-04-06T15:22:58.793Z,10.90
2023-04-06T15:25:25.888Z,13.25
2023-04-06T15:27:52.863Z,11.95
2023-04-06T15:30:19.900Z,10.45
2023-04-06T15:33:04.811Z,12.75
2023-04-06T15:35:32.233Z,9.90
2023-04-06T15:37:59.243Z,10.48
2023-04-06T15:40:26.250Z,9.05
2023-04-06T15:42:53.667Z,10.68
2023-04-06T15:45:20.959Z,10.45
2023-04-06T15:47:47.828Z,9.98
2023-04-06T15:50:15.212Z,11.45
2023-04-06T15:52:42.304Z,10.00
2023-04-06T15:55:10.238Z,11.13
2023-04-06T15:57:37.227Z,11.23
2023-04-06T16:00:05.102Z,10.20
2023-04-06T16:02:36.452Z,10.10
2023-04-06T16:05:04.365Z,11.10
2023-04-06T16:07:32.534Z,10.50
2023-04-06T16:09:59.394Z,9.43
2023-04-06T16:12:27.719Z,9.23
2023-04-06T16:14:55.884Z,10.60
2023-04-06T16:17:23.300Z,8.57
2023-04-06T16:19:50.273Z,11.40
2023-04-06T16:22:17.511Z,10.70
2023-04-06T16:24:44.459Z,9.23
2023-04-06T16:27:12.389Z,9.02
2023-04-06T16:29:39.370Z,9.65
2023-04-06T16:32:06.942Z,9.70
2023-04-06T16:34:34.724Z,9.77
2023-04-06T16:37:02.222Z,11.80
2023-04-06T16:39:29.582Z,9.25
2023-04-06T16:41:57.424Z,10.98
2023-04-06T16:44:24.594Z,9.95
2023-04-06T16:46:52.689Z,11.32
2023-04-06T16:49:21.199Z,9.88
2023-04-06T16:51:50.020Z,11.38
2023-04-06T16:54:17.157Z,11.02
2023-04-06T16:56:47.051Z,11.27
2023-04-06T16:59:16.356Z,11.82
2023-04-06T17:01:44.360Z,10.30
2023-04-06T17:04:11.561Z,10.27
2023-04-06T17:06:38.559Z,10.70
2023-04-06T17:09:05.451Z,11.82
2023-04-06T17:11:43.824Z,10.82
2023-04-06T17:14:13.796Z,11.27
2023-04-06T17:16:40.901Z,12.02
2023-04-06T17:19:07.940Z,13.82
2023-04-06T17:21:34.879Z,15.23
2023-04-06T17:24:01.823Z,13.23
2023-04-06T17:26:28.703Z,18.13
2023-04-06T17:28:55.560Z,14.45
2023-04-06T17:31:22.750Z,16.02
2023-04-06T17:33:49.944Z,14.18
2023-04-06T17:36:16.906Z,13.30
2023-04-06T17:38:45.791Z,16.35
2023-04-06T17:41:13.927Z,15.35
2023-04-06T17:43:40.909Z,17.45
2023-04-06T17:46:08.441Z,16.77
2023-04-06T17:48:35.602Z,13.93
2023-04-06T17:51:02.720Z,14.60
2023-04-06T17:53:34.537Z,13.23
2023-04-06T17:56:04.947Z,18.25
2023-04-06T17:58:32.130Z,17.48
2023-04-06T18:00:59.053Z,14.60
2023-04-06T18:03:26.178Z,15.05
2023-04-06T18:05:53.302Z,14.18
2023-04-06T18:08:21.816Z,18.25
2023-04-06T18:10:49.030Z,18.67
2023-04-06T18:13:16.362Z,17.65
2023-04-06T18:15:43.355Z,14.77
2023-04-06T18:18:10.486Z,17.55
2023-04-06T18:20:41.790Z,17.65
2023-04-06T18:23:08.840Z,15.93
2023-04-06T18:25:42.271Z,16.75
2023-04-06T18:28:09.900Z,17.25
2023-04-06T18:30:37.175Z,14.68
2023-04-06T18:33:04.527Z,14.70
2023-04-06T18:35:31.600Z,17.02
2023-04-06T18:37:58.674Z,16.85
2023-04-06T18:40:39.163Z,16.80
2023-04-06T18:43:08.430Z,22.20
2023-04-06T18:45:38.557Z,19.20
2023-04-06T18:48:06.175Z,20.13
2023-04-06T18:50:34.344Z,18.80
2023-04-06T18:53:01.406Z,15.75
2023-04-06T18:55:28.582Z,16.10
2023-04-06T18:57:55.612Z,17.23
2023-04-06T19:00:22.647Z,19.08
2023-04-06T19:02:49.803Z,16.85
2023-04-06T19:05:17.058Z,19.30
2023-04-06T19:07:48.060Z,18.10
2023-04-06T19:10:15.146Z,19.58
2023-04-06T19:12:41.984Z,17.85
2023-04-06T19:15:09.542Z,17.90
2023-04-06T19:17:38.083Z,16.70
2023-04-06T19:20:05.622Z,17.92
2023-04-06T19:22:36.156Z,18.25
2023-04-06T19:25:05.389Z,18.67
2023-04-06T19:27:32.395Z,22.90
2023-04-06T19:41:49.027Z,21.67
2023-04-06T19:44:15.848Z,21.65
2023-04-06T19:46:43.014Z,20.48
2023-04-06T19:49:09.867Z,19.90
2023-04-06T19:51:36.875Z,22.40
2023-04-06T19:54:05.039Z,21.52
2023-04-06T19:56:32.333Z,19.65
2023-04-06T19:59:10.464Z,22.63
2023-04-06T20:01:44.431Z,23.83
2023-04-06T20:08:39.873Z,24.27
2023-04-06T20:11:31.312Z,24.58
2023-04-06T20:17:57.029Z,25.02
2023-04-06T20:20:24.036Z,23.08
2023-04-06T20:22:51.426Z,22.52
2023-04-06T20:25:18.944Z,20.10
2023-04-06T20:27:46.112Z,21.88
2023-04-06T20:30:16.060Z,23.42
2023-04-06T20:32:43.559Z,21.92
2023-04-06T20:35:10.643Z,20.95
2023-04-06T20:37:38.073Z,19.27
2023-04-06T20:40:05.617Z,17.85
2023-04-06T20:42:34.133Z,17.88
2023-04-06T20:45:02.591Z,16.88
2023-04-06T20:47:29.755Z,17.08
2023-04-06T20:49:56.826Z,16.27
2023-04-06T20:52:23.851Z,14.82
2023-04-06T20:54:51.122Z,16.83
2023-04-06T20:57:18.450Z,15.27
2023-04-06T20:59:46.079Z,15.82
2023-04-06T21:02:13.161Z,14.77
2023-04-06T21:04:40.445Z,16.77
2023-04-06T21:07:08.059Z,17.45
2023-04-06T21:09:40.281Z,20.33
2023-04-06T21:12:08.243Z,18.23
2023-04-06T21:14:35.628Z,19.10
2023-04-06T21:17:03.204Z,20.75
2023-04-06T21:19:30.178Z,16.77
2023-04-06T21:21:57.077Z,19.10
2023-04-06T21:24:23.972Z,19.00
2023-04-06T21:26:51.039Z,18.98
2023-04-06T21:29:17.937Z,18.42
2023-04-06T21:31:44.813Z,16.95
2023-04-06T21:34:13.281Z,16.38
2023-04-06T21:36:41.624Z,16.27
2023-04-06T21:39:08.902Z,16.15
2023-04-06T21:41:36.052Z,17.30
2023-04-06T21:44:03.237Z,16.80
2023-04-06T21:46:30.733Z,16.15
2023-04-06T21:48:57.825Z,16.13
2023-04-06T21:51:25.104Z,17.27
2023-04-06T21:53:53.541Z,15.90
2023-04-06T21:56:22.518Z,18.05
2023-04-06T21:58:50.236Z,16.83
2023-04-06T22:01:17.889Z,17.02
2023-04-06T22:03:46.513Z,18.33
2023-04-06T22:06:13.731Z,15.93
2023-04-06T22:08:40.794Z,15.40
2023-04-06T22:11:09.439Z,16.30
2023-04-06T22:13:37.243Z,15.27
2023-04-06T22:16:05.028Z,16.92
2023-04-06T22:18:32.427Z,19.35
2023-04-06T22:20:59.943Z,18.77
2023-04-06T22:23:26.974Z,18.70
2023-04-06T22:25:54.015Z,19.27
2023-04-06T22:28:20.939Z,18.98
2023-04-06T22:30:47.844Z,19.42
2023-04-06T22:33:15.088Z,18.05
2023-04-06T22:35:42.304Z,16.65
2023-04-06T22:38:09.429Z,19.23
2023-04-06T22:40:37.794Z,21.88
2023-04-06T22:43:04.830Z,20.40
2023-04-06T22:45:31.848Z,19.38
2023-04-06T22:48:01.826Z,18.83
2023-04-06T22:50:28.891Z,18.77
2023-04-06T22:52:56.256Z,18.17
2023-04-06T22:55:23.588Z,16.77
2023-04-06T22:57:50.725Z,16.65
2023-04-06T23:00:18.199Z,17.58
2023-04-06T23:02:45.793Z,16.17
2023-04-06T23:05:13.034Z,17.42
2023-04-06T23:07:39.972Z,18.17
2023-04-06T23:10:07.990Z,18.40
2023-04-06T23:12:35.071Z,17.48
2023-04-06T23:15:02.086Z,17.48
2023-04-06T23:17:29.094Z,18.98
2023-04-06T23:19:56.389Z,17.20
2023-04-06T23:22:23.388Z,16.15
2023-04-06T23:24:50.568Z,15.43
2023-04-06T23:27:17.654Z,13.13
2023-04-06T23:29:44.590Z,13.88
2023-04-06T23:32:11.837Z,13.40
2023-04-06T23:34:38.789Z,15.10
2023-04-06T23:37:05.867Z,13.93
2023-04-06T23:39:33.023Z,12.80
2023-04-06T23:42:00.159Z,13.43
2023-04-06T23:44:30.981Z,14.20
2023-04-06T23:46:58.295Z,12.52
2023-04-06T23:49:25.368Z,12.88
2023-04-06T23:51:52.332Z,13.55
2023-04-06T23:54:19.288Z,13.60
2023-04-06T23:56:46.474Z,13.65
2023-04-06T23:59:13.403Z,14.00
